Time,TemperatureF,DewpointF,PressureIn,WindDirection,WindDirectionDegrees,WindSpeedMPH,WindSpeedGustMPH,Humidity,HourlyPrecipIn,Conditions,Clouds,dailyrainin,SolarRadiationWatts/m^2,SoftwareType,DateUTC
2013-11-13 00:03:00,20.0,5.0,-100.00,West,264,4.0,10.0,52,0.00,,,0.00,0.000000,,2013-11-13 06:03:00,
2013-11-13 00:10:00,19.0,6.0,-100.00,WSW,257,3.0,10.0,56,0.00,,,0.00,0.000000,,2013-11-13 06:10:00,
2013-11-13 00:42:00,19.0,6.0,-100.00,WSW,257,3.0,10.0,56,0.00,,,0.00,0.000000,,2013-11-13 06:42:00,
2013-11-13 00:52:00,19.0,6.0,-100.00,WSW,257,3.0,10.0,56,0.00,,,0.00,0.000000,,2013-11-13 06:52:00,
2013-11-13 01:02:00,19.0,6.0,-100.00,WSW,257,3.0,10.0,56,0.00,,,0.00,0.000000,,2013-11-13 07:02:00,
2013-11-13 01:10:00,19.0,7.0,-100.00,WSW,246,3.0,10.0,60,0.00,,,-99.99,0.000000,,2013-11-13 07:10:00,
2013-11-13 01:42:00,19.0,7.0,-100.00,WSW,246,3.0,10.0,60,0.00,,,-99.99,0.000000,,2013-11-13 07:42:00,
2013-11-13 01:52:00,19.0,7.0,-100.00,WSW,246,3.0,10.0,60,0.00,,,-99.99,0.000000,,2013-11-13 07:52:00,
2013-11-13 02:02:00,19.0,7.0,-100.00,WSW,246,3.0,10.0,60,0.00,,,-99.99,0.000000,,2013-11-13 08:02:00,
2013-11-13 02:10:00,18.0,8.0,-100.00,SW,218,3.0,8.0,65,0.00,,,0.00,0.000000,,2013-11-13 08:10:00,
2013-11-13 02:42:00,18.0,8.0,-100.00,SW,218,3.0,8.0,65,0.00,,,0.00,0.000000,,2013-11-13 08:42:00,
2013-11-13 02:52:00,18.0,8.0,-100.00,SW,218,3.0,8.0,65,0.00,,,0.00,0.000000,,2013-11-13 08:52:00,
2013-11-13 03:03:00,18.0,8.0,-100.00,SW,218,3.0,8.0,65,0.00,,,0.00,0.000000,,2013-11-13 09:03:00,
2013-11-13 03:10:00,18.0,9.0,-100.00,SW,222,2.0,10.0,67,0.00,,,0.00,0.000000,,2013-11-13 09:10:00,
2013-11-13 03:43:00,18.0,9.0,-100.00,SW,222,2.0,10.0,67,0.00,,,0.00,0.000000,,2013-11-13 09:43:00,
2013-11-13 03:52:00,18.0,9.0,-100.00,SW,222,2.0,10.0,67,0.00,,,0.00,0.000000,,2013-11-13 09:52:00,
2013-11-13 04:03:00,18.0,9.0,-100.00,SW,222,2.0,10.0,67,0.00,,,0.00,0.000000,,2013-11-13 10:03:00,
2013-11-13 04:10:00,18.0,10.0,-100.00,SW,224,3.0,9.0,70,0.00,,,0.00,0.000000,,2013-11-13 10:10:00,
2013-11-13 04:42:00,18.0,10.0,-100.00,SW,224,3.0,9.0,70,0.00,,,0.00,0.000000,,2013-11-13 10:42:00,
2013-11-13 04:52:00,18.0,10.0,-100.00,SW,224,3.0,9.0,70,0.00,,,0.00,0.000000,,2013-11-13 10:52:00,
2013-11-13 05:02:00,18.0,10.0,-100.00,SW,224,3.0,9.0,70,0.00,,,0.00,0.000000,,2013-11-13 11:02:00,
2013-11-13 05:10:00,19.0,11.0,-100.00,SW,219,5.0,11.0,69,0.00,,,-99.99,0.000000,,2013-11-13 11:10:00,
2013-11-13 05:42:00,19.0,11.0,-100.00,SW,219,5.0,11.0,69,0.00,,,-99.99,0.000000,,2013-11-13 11:42:00,
2013-11-13 05:52:00,19.0,11.0,-100.00,SW,219,5.0,11.0,69,0.00,,,-99.99,0.000000,,2013-11-13 11:52:00,
2013-11-13 06:02:00,19.0,11.0,-100.00,SW,219,5.0,11.0,69,0.00,,,-99.99,0.000000,,2013-11-13 12:02:00,
2013-11-13 06:10:00,19.0,11.0,-100.00,SW,217,2.0,11.0,70,0.00,,,0.00,0.000000,,2013-11-13 12:10:00,
2013-11-13 06:42:00,19.0,11.0,-100.00,SW,217,2.0,11.0,70,0.00,,,0.00,0.000000,,2013-11-13 12:42:00,
2013-11-13 06:52:00,19.0,11.0,-100.00,SW,217,2.0,11.0,70,0.00,,,0.00,0.000000,,2013-11-13 12:52:00,
2013-11-13 07:01:00,19.0,11.0,-100.00,SW,217,2.0,11.0,70,0.00,,,0.00,0.000000,,2013-11-13 13:01:00,
2013-11-13 07:10:00,19.0,11.0,-100.00,SSW,204,3.0,9.0,71,0.00,,,0.00,2.000000,,2013-11-13 13:10:00,
2013-11-13 07:42:00,19.0,11.0,-100.00,SSW,204,3.0,9.0,71,0.00,,,0.00,2.000000,,2013-11-13 13:42:00,
2013-11-13 07:52:00,19.0,11.0,-100.00,SSW,204,3.0,9.0,71,0.00,,,0.00,2.000000,,2013-11-13 13:52:00,
2013-11-13 08:02:00,19.0,11.0,-100.00,SSW,204,3.0,9.0,71,0.00,,,0.00,2.000000,,2013-11-13 14:02:00,
2013-11-13 08:10:00,20.0,12.0,-100.00,SSW,213,5.0,11.0,70,0.00,,,0.00,26.000000,,2013-11-13 14:10:00,
2013-11-13 08:42:00,20.0,12.0,-100.00,SSW,213,5.0,11.0,70,0.00,,,0.00,26.000000,,2013-11-13 14:42:00,
2013-11-13 08:53:00,20.0,12.0,-100.00,SSW,213,5.0,11.0,70,0.00,,,0.00,26.000000,,2013-11-13 14:53:00,
2013-11-13 09:02:00,20.0,12.0,-100.00,SSW,213,5.0,11.0,70,0.00,,,0.00,26.000000,,2013-11-13 15:02:00,
2013-11-13 09:10:00,24.0,14.0,-100.00,SSW,209,4.0,12.0,64,0.00,,,0.00,70.000000,,2013-11-13 15:10:00,
2013-11-13 09:43:00,24.0,14.0,-100.00,SSW,209,4.0,12.0,64,0.00,,,0.00,70.000000,,2013-11-13 15:43:00,
2013-11-13 09:53:00,24.0,14.0,-100.00,SSW,209,4.0,12.0,64,0.00,,,0.00,70.000000,,2013-11-13 15:53:00,
2013-11-13 10:03:00,24.0,14.0,-100.00,SSW,209,4.0,12.0,64,0.00,,,0.00,70.000000,,2013-11-13 16:03:00,
2013-11-13 10:10:00,29.0,16.0,-100.00,SSW,195,3.0,14.0,59,0.00,,,0.00,50.000000,,2013-11-13 16:10:00,
2013-11-13 10:43:00,29.0,16.0,-100.00,SSW,195,3.0,14.0,59,0.00,,,0.00,50.000000,,2013-11-13 16:43:00,
2013-11-13 10:53:00,29.0,16.0,-100.00,SSW,195,3.0,14.0,59,0.00,,,0.00,50.000000,,2013-11-13 16:53:00,
2013-11-13 11:02:00,29.0,16.0,-100.00,SSW,195,3.0,14.0,59,0.00,,,0.00,50.000000,,2013-11-13 17:02:00,
2013-11-13 11:10:00,37.0,22.0,-100.00,South,189,3.0,14.0,55,0.00,,,0.00,131.000000,,2013-11-13 17:10:00,
2013-11-13 11:42:00,37.0,22.0,-100.00,South,189,3.0,14.0,55,0.00,,,0.00,131.000000,,2013-11-13 17:42:00,
2013-11-13 11:52:00,37.0,22.0,-100.00,South,189,3.0,14.0,55,0.00,,,0.00,131.000000,,2013-11-13 17:52:00,
2013-11-13 12:02:00,37.0,22.0,-100.00,South,189,3.0,14.0,55,0.00,,,0.00,131.000000,,2013-11-13 18:02:00,
2013-11-13 12:10:00,44.0,27.0,-100.00,SSW,212,6.0,20.0,50,0.00,,,0.00,389.000000,,2013-11-13 18:10:00,
2013-11-13 12:42:00,44.0,27.0,-100.00,SSW,212,6.0,20.0,50,0.00,,,0.00,389.000000,,2013-11-13 18:42:00,
2013-11-13 12:52:00,44.0,27.0,-100.00,SSW,212,6.0,20.0,50,0.00,,,0.00,389.000000,,2013-11-13 18:52:00,
2013-11-13 13:02:00,44.0,27.0,-100.00,SSW,212,6.0,20.0,50,0.00,,,0.00,389.000000,,2013-11-13 19:02:00,
2013-11-13 13:10:00,47.0,27.0,-100.00,SW,222,7.0,21.0,45,0.00,,,0.00,340.000000,,2013-11-13 19:10:00,
2013-11-13 13:42:00,47.0,27.0,-100.00,SW,222,7.0,21.0,45,0.00,,,0.00,340.000000,,2013-11-13 19:42:00,
2013-11-13 13:52:00,47.0,27.0,-100.00,SW,222,7.0,21.0,45,0.00,,,0.00,340.000000,,2013-11-13 19:52:00,
2013-11-13 14:02:00,47.0,27.0,-100.00,SW,222,7.0,21.0,45,0.00,,,0.00,340.000000,,2013-11-13 20:02:00,
2013-11-13 14:10:00,48.0,27.0,-100.00,SW,216,6.0,23.0,44,0.00,,,0.00,296.000000,,2013-11-13 20:10:00,
2013-11-13 14:42:00,48.0,27.0,-100.00,SW,216,6.0,23.0,44,0.00,,,0.00,296.000000,,2013-11-13 20:42:00,
2013-11-13 14:52:00,48.0,27.0,-100.00,SW,216,6.0,23.0,44,0.00,,,0.00,296.000000,,2013-11-13 20:52:00,
2013-11-13 15:01:00,48.0,27.0,-100.00,SW,216,6.0,23.0,44,0.00,,,0.00,296.000000,,2013-11-13 21:01:00,
2013-11-13 15:10:00,47.0,26.0,-100.00,SSW,212,6.0,22.0,44,0.00,,,0.00,197.000000,,2013-11-13 21:10:00,
2013-11-13 15:43:00,47.0,26.0,-100.00,SSW,212,6.0,22.0,44,0.00,,,0.00,197.000000,,2013-11-13 21:43:00,
2013-11-13 15:53:00,47.0,26.0,-100.00,SSW,212,6.0,22.0,44,0.00,,,0.00,197.000000,,2013-11-13 21:53:00,
2013-11-13 16:03:00,47.0,26.0,-100.00,SSW,212,6.0,22.0,44,0.00,,,0.00,197.000000,,2013-11-13 22:03:00,
2013-11-13 16:10:00,44.0,26.0,-100.00,SW,222,6.0,18.0,48,0.00,,,0.00,49.000000,,2013-11-13 22:10:00,
2013-11-13 16:42:00,44.0,26.0,-100.00,SW,222,6.0,18.0,48,0.00,,,0.00,49.000000,,2013-11-13 22:42:00,
2013-11-13 16:53:00,44.0,26.0,-100.00,SW,222,6.0,18.0,48,0.00,,,0.00,49.000000,,2013-11-13 22:53:00,
2013-11-13 17:02:00,44.0,26.0,-100.00,SW,222,6.0,18.0,48,0.00,,,0.00,49.000000,,2013-11-13 23:02:00,
2013-11-13 17:10:00,42.0,26.0,-100.00,SW,225,5.0,19.0,53,0.00,,,0.00,3.000000,,2013-11-13 23:10:00,
2013-11-13 17:43:00,42.0,26.0,-100.00,SW,225,5.0,19.0,53,0.00,,,0.00,3.000000,,2013-11-13 23:43:00,
2013-11-13 17:53:00,42.0,26.0,-100.00,SW,225,5.0,19.0,53,0.00,,,0.00,3.000000,,2013-11-13 23:53:00,
2013-11-13 18:02:00,42.0,26.0,-100.00,SW,225,5.0,19.0,53,0.00,,,0.00,3.000000,,2013-11-14 00:02:00,
2013-11-13 18:10:00,41.0,27.0,-100.00,SW,225,6.0,17.0,58,0.00,,,0.00,0.000000,,2013-11-14 00:10:00,
2013-11-13 18:42:00,41.0,27.0,-100.00,SW,225,6.0,17.0,58,0.00,,,0.00,0.000000,,2013-11-14 00:42:00,
2013-11-13 18:52:00,41.0,27.0,-100.00,SW,225,6.0,17.0,58,0.00,,,0.00,0.000000,,2013-11-14 00:52:00,
2013-11-13 19:02:00,41.0,27.0,-100.00,SW,225,6.0,17.0,58,0.00,,,0.00,0.000000,,2013-11-14 01:02:00,
2013-11-13 19:10:00,40.0,28.0,-100.00,SW,223,3.0,17.0,61,0.00,,,0.00,0.000000,,2013-11-14 01:10:00,
2013-11-13 19:42:00,40.0,28.0,-100.00,SW,223,3.0,17.0,61,0.00,,,0.00,0.000000,,2013-11-14 01:42:00,
2013-11-13 19:52:00,40.0,28.0,-100.00,SW,223,3.0,17.0,61,0.00,,,0.00,0.000000,,2013-11-14 01:52:00,
2013-11-13 20:01:00,40.0,28.0,-100.00,SW,223,3.0,17.0,61,0.00,,,0.00,0.000000,,2013-11-14 02:01:00,
2013-11-13 20:10:00,39.0,28.0,-100.00,SW,223,5.0,19.0,64,0.00,,,0.00,0.000000,,2013-11-14 02:10:00,
2013-11-13 20:53:00,39.0,28.0,-100.00,SW,223,5.0,19.0,64,0.00,,,0.00,0.000000,,2013-11-14 02:53:00,
2013-11-13 21:02:00,39.0,28.0,-100.00,SW,223,5.0,19.0,64,0.00,,,0.00,0.000000,,2013-11-14 03:02:00,
2013-11-13 21:10:00,38.0,27.0,-100.00,SW,218,5.0,14.0,65,0.00,,,0.00,0.000000,,2013-11-14 03:10:00,
2013-11-13 21:44:00,38.0,27.0,-100.00,SW,218,5.0,14.0,65,0.00,,,0.00,0.000000,,2013-11-14 03:44:00,
2013-11-13 21:54:00,38.0,27.0,-100.00,SW,218,5.0,14.0,65,0.00,,,0.00,0.000000,,2013-11-14 03:54:00,
2013-11-13 22:03:00,38.0,27.0,-100.00,SW,218,5.0,14.0,65,0.00,,,0.00,0.000000,,2013-11-14 04:03:00,
2013-11-13 22:10:00,37.0,27.0,-100.00,SW,218,4.0,14.0,67,0.00,,,0.00,0.000000,,2013-11-14 04:10:00,
2013-11-13 22:43:00,37.0,27.0,-100.00,SW,218,4.0,14.0,67,0.00,,,0.00,0.000000,,2013-11-14 04:43:00,
2013-11-13 22:54:00,37.0,27.0,-100.00,SW,218,4.0,14.0,67,0.00,,,0.00,0.000000,,2013-11-14 04:54:00,
2013-11-13 23:03:00,37.0,27.0,-100.00,SW,218,4.0,14.0,67,0.00,,,0.00,0.000000,,2013-11-14 05:03:00,
2013-11-13 23:10:00,36.0,27.0,-100.00,SSW,212,3.0,11.0,69,0.00,,,0.00,0.000000,,2013-11-14 05:10:00,
2013-11-13 23:44:00,36.0,27.0,-100.00,SSW,212,3.0,11.0,69,0.00,,,0.00,0.000000,,2013-11-14 05:44:00,
2013-11-13 23:53:00,36.0,27.0,-100.00,SSW,212,3.0,11.0,69,0.00,,,0.00,0.000000,,2013-11-14 05:53:00,